sensor_id;sensor_type;location;lat;lon;timestamp;P1;durP1;ratioP1;P2;durP2;ratioP2
20527;SDS011;23612;50.894;10.700;2023-04-07T00:02:24;251.00;;;72.97;;
20527;SDS011;23612;50.894;10.700;2023-04-07T00:04:49;504.37;;;190.10;;
20527;SDS011;23612;50.894;10.700;2023-04-07T00:07:15;118.10;;;46.67;;
20527;SDS011;23612;50.894;10.700;2023-04-07T00:09:40;272.57;;;97.90;;
20527;SDS011;23612;50.894;10.700;2023-04-07T00:12:06;404.80;;;135.70;;
20527;SDS011;23612;50.894;10.700;2023-04-07T00:14:31;768.10;;;255.63;;
20527;SDS011;23612;50.894;10.700;2023-04-07T00:16:57;542.37;;;165.40;;
20527;SDS011;23612;50.894;10.700;2023-04-07T00:19:22;356.23;;;120.60;;
20527;SDS011;23612;50.894;10.700;2023-04-07T00:21:48;415.03;;;136.30;;
20527;SDS011;23612;50.894;10.700;2023-04-07T00:24:13;512.07;;;168.60;;
20527;SDS011;23612;50.894;10.700;2023-04-07T00:26:39;678.20;;;237.17;;
20527;SDS011;23612;50.894;10.700;2023-04-07T00:29:04;680.47;;;233.33;;
20527;SDS011;23612;50.894;10.700;2023-04-07T00:31:30;463.83;;;135.73;;
20527;SDS011;23612;50.894;10.700;2023-04-07T00:33:55;270.67;;;76.23;;
20527;SDS011;23612;50.894;10.700;2023-04-07T00:36:21;67.70;;;25.60;;
20527;SDS011;23612;50.894;10.700;2023-04-07T00:38:47;20.83;;;12.27;;
20527;SDS011;23612;50.894;10.700;2023-04-07T00:41:12;21.27;;;11.90;;
20527;SDS011;23612;50.894;10.700;2023-04-07T00:43:38;23.23;;;11.67;;
20527;SDS011;23612;50.894;10.700;2023-04-07T00:46:03;20.00;;;11.47;;
20527;SDS011;23612;50.894;10.700;2023-04-07T00:48:29;24.00;;;11.67;;
20527;SDS011;23612;50.894;10.700;2023-04-07T00:50:55;27.60;;;12.47;;
20527;SDS011;23612;50.894;10.700;2023-04-07T00:53:21;21.53;;;11.37;;
20527;SDS011;23612;50.894;10.700;2023-04-07T00:55:46;19.53;;;11.20;;
20527;SDS011;23612;50.894;10.700;2023-04-07T00:58:12;21.33;;;12.37;;
20527;SDS011;23612;50.894;10.700;2023-04-07T01:00:48;80.07;;;28.53;;
20527;SDS011;23612;50.894;10.700;2023-04-07T01:03:45;200.97;;;67.23;;
20527;SDS011;23612;50.894;10.700;2023-04-07T01:06:17;224.97;;;82.47;;
20527;SDS011;23612;50.894;10.700;2023-04-07T01:08:53;224.23;;;84.27;;
20527;SDS011;23612;50.894;10.700;2023-04-07T01:11:42;147.43;;;51.07;;
20527;SDS011;23612;50.894;10.700;2023-04-07T01:14:15;204.13;;;70.67;;
20527;SDS011;23612;50.894;10.700;2023-04-07T01:16:45;68.87;;;29.60;;
20527;SDS011;23612;50.894;10.700;2023-04-07T01:22:00;280.43;;;97.43;;
20527;SDS011;23612;50.894;10.700;2023-04-07T01:24:42;445.17;;;158.13;;
20527;SDS011;23612;50.894;10.700;2023-04-07T01:27:34;329.10;;;112.13;;
20527;SDS011;23612;50.894;10.700;2023-04-07T01:30:07;176.43;;;64.50;;
20527;SDS011;23612;50.894;10.700;2023-04-07T01:32:36;203.73;;;71.60;;
20527;SDS011;23612;50.894;10.700;2023-04-07T01:35:04;54.97;;;22.73;;
20527;SDS011;23612;50.894;10.700;2023-04-07T01:37:34;436.83;;;136.33;;
20527;SDS011;23612;50.894;10.700;2023-04-07T01:40:02;216.83;;;68.37;;
20527;SDS011;23612;50.894;10.700;2023-04-07T01:42:29;145.07;;;52.40;;
20527;SDS011;23612;50.894;10.700;2023-04-07T01:44:56;64.43;;;23.80;;
20527;SDS011;23612;50.894;10.700;2023-04-07T01:47:23;56.50;;;23.07;;
20527;SDS011;23612;50.894;10.700;2023-04-07T01:49:51;47.23;;;20.93;;
20527;SDS011;23612;50.894;10.700;2023-04-07T01:52:18;25.20;;;13.50;;
20527;SDS011;23612;50.894;10.700;2023-04-07T01:54:44;25.73;;;12.93;;
20527;SDS011;23612;50.894;10.700;2023-04-07T01:57:10;24.63;;;12.30;;
20527;SDS011;23612;50.894;10.700;2023-04-07T01:59:36;21.00;;;11.50;;
20527;SDS011;23612;50.894;10.700;2023-04-07T02:02:01;21.33;;;11.67;;
20527;SDS011;23612;50.894;10.700;2023-04-07T02:04:31;21.70;;;11.67;;
20527;SDS011;23612;50.894;10.700;2023-04-07T02:07:05;21.23;;;11.27;;
20527;SDS011;23612;50.894;10.700;2023-04-07T02:09:34;37.07;;;15.10;;
20527;SDS011;23612;50.894;10.700;2023-04-07T02:12:03;72.33;;;24.87;;
20527;SDS011;23612;50.894;10.700;2023-04-07T02:14:31;131.17;;;40.67;;
20527;SDS011;23612;50.894;10.700;2023-04-07T02:16:57;283.23;;;79.27;;
20527;SDS011;23612;50.894;10.700;2023-04-07T02:19:23;95.83;;;33.37;;
20527;SDS011;23612;50.894;10.700;2023-04-07T02:21:50;53.13;;;20.67;;
20527;SDS011;23612;50.894;10.700;2023-04-07T02:24:18;121.23;;;37.27;;
20527;SDS011;23612;50.894;10.700;2023-04-07T02:26:44;221.70;;;68.17;;
20527;SDS011;23612;50.894;10.700;2023-04-07T02:29:11;75.27;;;26.40;;
20527;SDS011;23612;50.894;10.700;2023-04-07T02:31:37;32.30;;;14.07;;
20527;SDS011;23612;50.894;10.700;2023-04-07T02:34:03;28.23;;;13.30;;
20527;SDS011;23612;50.894;10.700;2023-04-07T02:36:28;32.90;;;16.67;;
20527;SDS011;23612;50.894;10.700;2023-04-07T02:38:55;34.23;;;15.80;;
20527;SDS011;23612;50.894;10.700;2023-04-07T02:41:20;34.80;;;15.87;;
20527;SDS011;23612;50.894;10.700;2023-04-07T02:43:46;61.27;;;22.87;;
20527;SDS011;23612;50.894;10.700;2023-04-07T02:46:11;46.50;;;17.87;;
20527;SDS011;23612;50.894;10.700;2023-04-07T02:48:37;42.23;;;19.43;;
20527;SDS011;23612;50.894;10.700;2023-04-07T02:51:03;37.20;;;15.77;;
20527;SDS011;23612;50.894;10.700;2023-04-07T02:53:28;25.20;;;12.53;;
20527;SDS011;23612;50.894;10.700;2023-04-07T02:55:54;29.83;;;14.60;;
20527;SDS011;23612;50.894;10.700;2023-04-07T02:58:19;131.83;;;37.33;;
20527;SDS011;23612;50.894;10.700;2023-04-07T03:00:46;27.53;;;13.57;;
20527;SDS011;23612;50.894;10.700;2023-04-07T03:03:12;37.97;;;15.83;;
20527;SDS011;23612;50.894;10.700;2023-04-07T03:05:38;68.57;;;23.43;;
20527;SDS011;23612;50.894;10.700;2023-04-07T03:08:03;97.87;;;30.37;;
20527;SDS011;23612;50.894;10.700;2023-04-07T03:10:29;162.60;;;50.47;;
20527;SDS011;23612;50.894;10.700;2023-04-07T03:12:55;42.00;;;17.53;;
20527;SDS011;23612;50.894;10.700;2023-04-07T03:15:21;189.93;;;51.13;;
20527;SDS011;23612;50.894;10.700;2023-04-07T03:17:46;108.37;;;33.27;;
20527;SDS011;23612;50.894;10.700;2023-04-07T03:20:12;43.50;;;17.87;;
20527;SDS011;23612;50.894;10.700;2023-04-07T03:22:37;33.87;;;14.90;;
20527;SDS011;23612;50.894;10.700;2023-04-07T03:25:03;22.93;;;12.20;;
20527;SDS011;23612;50.894;10.700;2023-04-07T03:27:29;21.60;;;12.70;;
20527;SDS011;23612;50.894;10.700;2023-04-07T03:29:54;26.33;;;13.10;;
20527;SDS011;23612;50.894;10.700;2023-04-07T03:32:20;41.60;;;16.73;;
20527;SDS011;23612;50.894;10.700;2023-04-07T03:34:45;36.77;;;15.97;;
20527;SDS011;23612;50.894;10.700;2023-04-07T03:37:11;64.73;;;23.37;;
20527;SDS011;23612;50.894;10.700;2023-04-07T03:39:36;44.57;;;20.07;;
20527;SDS011;23612;50.894;10.700;2023-04-07T03:42:03;40.23;;;17.50;;
20527;SDS011;23612;50.894;10.700;2023-04-07T03:44:28;44.13;;;17.73;;
20527;SDS011;23612;50.894;10.700;2023-04-07T03:46:54;48.10;;;19.27;;
20527;SDS011;23612;50.894;10.700;2023-04-07T03:49:20;49.63;;;18.63;;
20527;SDS011;23612;50.894;10.700;2023-04-07T03:51:46;42.10;;;16.27;;
20527;SDS011;23612;50.894;10.700;2023-04-07T03:54:11;43.13;;;16.77;;
20527;SDS011;23612;50.894;10.700;2023-04-07T03:56:37;37.20;;;15.80;;
20527;SDS011;23612;50.894;10.700;2023-04-07T03:59:02;35.57;;;15.40;;
20527;SDS011;23612;50.894;10.700;2023-04-07T04:01:28;28.07;;;13.73;;
20527;SDS011;23612;50.894;10.700;2023-04-07T04:03:53;27.67;;;13.60;;
20527;SDS011;23612;50.894;10.700;2023-04-07T04:06:19;27.10;;;13.13;;
20527;SDS011;23612;50.894;10.700;2023-04-07T04:08:44;32.17;;;13.77;;
20527;SDS011;23612;50.894;10.700;2023-04-07T04:11:10;25.60;;;14.00;;
20527;SDS011;23612;50.894;10.700;2023-04-07T04:13:35;47.20;;;18.50;;
20527;SDS011;23612;50.894;10.700;2023-04-07T04:16:02;79.20;;;26.57;;
20527;SDS011;23612;50.894;10.700;2023-04-07T04:18:28;76.87;;;26.57;;
20527;SDS011;23612;50.894;10.700;2023-04-07T04:20:53;50.63;;;19.30;;
20527;SDS011;23612;50.894;10.700;2023-04-07T04:23:19;34.23;;;16.27;;
20527;SDS011;23612;50.894;10.700;2023-04-07T04:25:44;45.53;;;18.57;;
20527;SDS011;23612;50.894;10.700;2023-04-07T04:28:10;37.13;;;16.00;;
20527;SDS011;23612;50.894;10.700;2023-04-07T04:30:35;60.30;;;21.43;;
20527;SDS011;23612;50.894;10.700;2023-04-07T04:33:01;44.13;;;19.27;;
20527;SDS011;23612;50.894;10.700;2023-04-07T04:35:27;68.57;;;23.23;;
20527;SDS011;23612;50.894;10.700;2023-04-07T04:37:52;61.77;;;21.90;;
20527;SDS011;23612;50.894;10.700;2023-04-07T04:40:18;70.13;;;24.80;;
20527;SDS011;23612;50.894;10.700;2023-04-07T04:42:43;76.17;;;27.33;;
20527;SDS011;23612;50.894;10.700;2023-04-07T04:45:09;95.27;;;30.10;;
20527;SDS011;23612;50.894;10.700;2023-04-07T04:47:35;354.50;;;103.53;;
20527;SDS011;23612;50.894;10.700;2023-04-07T04:50:02;96.43;;;36.40;;
20527;SDS011;23612;50.894;10.700;2023-04-07T04:52:29;63.73;;;25.40;;
20527;SDS011;23612;50.894;10.700;2023-04-07T04:54:55;134.47;;;44.63;;
20527;SDS011;23612;50.894;10.700;2023-04-07T04:57:20;60.97;;;22.77;;
20527;SDS011;23612;50.894;10.700;2023-04-07T04:59:46;40.13;;;16.80;;
20527;SDS011;23612;50.894;10.700;2023-04-07T05:02:11;118.20;;;38.57;;
20527;SDS011;23612;50.894;10.700;2023-04-07T05:04:37;90.70;;;31.63;;
20527;SDS011;23612;50.894;10.700;2023-04-07T05:07:03;92.10;;;32.97;;
20527;SDS011;23612;50.894;10.700;2023-04-07T05:09:28;75.60;;;27.30;;
20527;SDS011;23612;50.894;10.700;2023-04-07T05:11:54;61.40;;;23.70;;
20527;SDS011;23612;50.894;10.700;2023-04-07T05:14:19;68.07;;;24.40;;
20527;SDS011;23612;50.894;10.700;2023-04-07T05:16:45;62.33;;;23.63;;
20527;SDS011;23612;50.894;10.700;2023-04-07T05:19:10;64.23;;;25.73;;
20527;SDS011;23612;50.894;10.700;2023-04-07T05:21:36;86.43;;;29.40;;
20527;SDS011;23612;50.894;10.700;2023-04-07T05:24:01;45.73;;;19.37;;
20527;SDS011;23612;50.894;10.700;2023-04-07T05:26:27;50.13;;;20.60;;
20527;SDS011;23612;50.894;10.700;2023-04-07T05:28:52;31.27;;;15.07;;
20527;SDS011;23612;50.894;10.700;2023-04-07T05:31:18;45.90;;;16.37;;
20527;SDS011;23612;50.894;10.700;2023-04-07T05:33:43;23.13;;;12.23;;
20527;SDS011;23612;50.894;10.700;2023-04-07T05:36:09;26.07;;;13.43;;
20527;SDS011;23612;50.894;10.700;2023-04-07T05:38:34;23.30;;;13.33;;
20527;SDS011;23612;50.894;10.700;2023-04-07T05:41:00;18.57;;;10.53;;
20527;SDS011;23612;50.894;10.700;2023-04-07T05:43:25;21.23;;;11.87;;
20527;SDS011;23612;50.894;10.700;2023-04-07T05:45:51;19.63;;;11.20;;
20527;SDS011;23612;50.894;10.700;2023-04-07T05:48:16;17.07;;;11.17;;
20527;SDS011;23612;50.894;10.700;2023-04-07T05:50:42;16.90;;;11.23;;
20527;SDS011;23612;50.894;10.700;2023-04-07T05:53:07;21.43;;;10.90;;
20527;SDS011;23612;50.894;10.700;2023-04-07T05:55:33;24.60;;;11.20;;
20527;SDS011;23612;50.894;10.700;2023-04-07T05:57:58;16.88;;;10.13;;
20527;SDS011;23612;50.894;10.700;2023-04-07T06:00:24;18.23;;;11.20;;
20527;SDS011;23612;50.894;10.700;2023-04-07T06:02:50;18.88;;;11.77;;
20527;SDS011;23612;50.894;10.700;2023-04-07T06:05:16;31.52;;;20.80;;
20527;SDS011;23612;50.894;10.700;2023-04-07T06:07:41;15.02;;;10.98;;
20527;SDS011;23612;50.894;10.700;2023-04-07T06:10:07;14.73;;;9.88;;
20527;SDS011;23612;50.894;10.700;2023-04-07T06:12:32;150.18;;;44.92;;
20527;SDS011;23612;50.894;10.700;2023-04-07T06:14:58;47.40;;;19.00;;
20527;SDS011;23612;50.894;10.700;2023-04-07T06:17:23;43.63;;;18.42;;
20527;SDS011;23612;50.894;10.700;2023-04-07T06:19:49;53.73;;;23.40;;
20527;SDS011;23612;50.894;10.700;2023-04-07T06:22:15;21.77;;;11.07;;
20527;SDS011;23612;50.894;10.700;2023-04-07T06:24:40;43.88;;;19.15;;
20527;SDS011;23612;50.894;10.700;2023-04-07T06:27:06;61.20;;;24.27;;
20527;SDS011;23612;50.894;10.700;2023-04-07T06:29:32;72.40;;;28.50;;
20527;SDS011;23612;50.894;10.700;2023-04-07T06:31:58;20.90;;;12.30;;
20527;SDS011;23612;50.894;10.700;2023-04-07T06:34:23;14.80;;;10.68;;
20527;SDS011;23612;50.894;10.700;2023-04-07T06:36:49;17.77;;;10.38;;
20527;SDS011;23612;50.894;10.700;2023-04-07T06:39:15;18.45;;;10.15;;
20527;SDS011;23612;50.894;10.700;2023-04-07T06:41:40;17.10;;;10.55;;
20527;SDS011;23612;50.894;10.700;2023-04-07T06:44:08;165.35;;;65.65;;
20527;SDS011;23612;50.894;10.700;2023-04-07T06:46:34;279.95;;;100.90;;
20527;SDS011;23612;50.894;10.700;2023-04-07T06:49:00;85.10;;;35.22;;
20527;SDS011;23612;50.894;10.700;2023-04-07T06:51:26;248.02;;;96.32;;
20527;SDS011;23612;50.894;10.700;2023-04-07T06:53:51;335.02;;;132.25;;
20527;SDS011;23612;50.894;10.700;2023-04-07T06:56:17;261.98;;;105.88;;
20527;SDS011;23612;50.894;10.700;2023-04-07T06:58:43;122.97;;;52.67;;
20527;SDS011;23612;50.894;10.700;2023-04-07T07:01:08;108.35;;;44.80;;
20527;SDS011;23612;50.894;10.700;2023-04-07T07:03:34;179.70;;;106.55;;
20527;SDS011;23612;50.894;10.700;2023-04-07T07:06:00;56.25;;;26.55;;
20527;SDS011;23612;50.894;10.700;2023-04-07T07:08:25;44.85;;;22.20;;
20527;SDS011;23612;50.894;10.700;2023-04-07T07:10:52;73.45;;;33.65;;
20527;SDS011;23612;50.894;10.700;2023-04-07T07:13:18;145.10;;;60.10;;
20527;SDS011;23612;50.894;10.700;2023-04-07T07:15:47;42.65;;;22.60;;
20527;SDS011;23612;50.894;10.700;2023-04-07T07:18:12;17.08;;;11.13;;
20527;SDS011;23612;50.894;10.700;2023-04-07T07:20:38;15.73;;;10.75;;
20527;SDS011;23612;50.894;10.700;2023-04-07T07:23:03;34.65;;;19.60;;
20527;SDS011;23612;50.894;10.700;2023-04-07T07:25:29;13.02;;;9.20;;
20527;SDS011;23612;50.894;10.700;2023-04-07T07:27:54;11.38;;;8.20;;
20527;SDS011;23612;50.894;10.700;2023-04-07T07:30:20;54.92;;;38.25;;
20527;SDS011;23612;50.894;10.700;2023-04-07T07:32:46;31.90;;;21.05;;
20527;SDS011;23612;50.894;10.700;2023-04-07T07:35:12;17.52;;;13.27;;
20527;SDS011;23612;50.894;10.700;2023-04-07T07:37:38;10.80;;;8.65;;
20527;SDS011;23612;50.894;10.700;2023-04-07T07:40:04;10.55;;;7.82;;
20527;SDS011;23612;50.894;10.700;2023-04-07T07:42:30;9.55;;;8.15;;
20527;SDS011;23612;50.894;10.700;2023-04-07T07:44:56;17.92;;;8.52;;
20527;SDS011;23612;50.894;10.700;2023-04-07T07:47:22;11.13;;;8.52;;
20527;SDS011;23612;50.894;10.700;2023-04-07T07:49:48;11.25;;;8.23;;
20527;SDS011;23612;50.894;10.700;2023-04-07T07:52:13;10.10;;;8.55;;
20527;SDS011;23612;50.894;10.700;2023-04-07T07:54:39;14.55;;;9.18;;
20527;SDS011;23612;50.894;10.700;2023-04-07T07:57:05;26.50;;;8.85;;
20527;SDS011;23612;50.894;10.700;2023-04-07T07:59:31;9.40;;;8.45;;
20527;SDS011;23612;50.894;10.700;2023-04-07T08:01:56;10.15;;;9.13;;
20527;SDS011;23612;50.894;10.700;2023-04-07T08:04:22;22.95;;;9.65;;
20527;SDS011;23612;50.894;10.700;2023-04-07T08:06:48;11.10;;;9.07;;
20527;SDS011;23612;50.894;10.700;2023-04-07T08:09:14;11.35;;;8.75;;
20527;SDS011;23612;50.894;10.700;2023-04-07T08:11:40;9.38;;;8.35;;
20527;SDS011;23612;50.894;10.700;2023-04-07T08:14:06;10.43;;;8.80;;
20527;SDS011;23612;50.894;10.700;2023-04-07T08:16:31;10.35;;;9.25;;
20527;SDS011;23612;50.894;10.700;2023-04-07T08:18:57;10.52;;;9.07;;
20527;SDS011;23612;50.894;10.700;2023-04-07T08:21:23;11.10;;;9.48;;
20527;SDS011;23612;50.894;10.700;2023-04-07T08:23:48;13.35;;;9.70;;
20527;SDS011;23612;50.894;10.700;2023-04-07T08:26:14;15.98;;;11.43;;
20527;SDS011;23612;50.894;10.700;2023-04-07T08:28:39;12.80;;;11.40;;
20527;SDS011;23612;50.894;10.700;2023-04-07T08:31:05;13.93;;;10.60;;
20527;SDS011;23612;50.894;10.700;2023-04-07T08:33:31;13.05;;;11.15;;
20527;SDS011;23612;50.894;10.700;2023-04-07T08:35:57;13.90;;;11.23;;
20527;SDS011;23612;50.894;10.700;2023-04-07T08:38:22;14.55;;;10.70;;
20527;SDS011;23612;50.894;10.700;2023-04-07T08:40:53;15.55;;;11.75;;
20527;SDS011;23612;50.894;10.700;2023-04-07T08:43:23;15.10;;;11.18;;
20527;SDS011;23612;50.894;10.700;2023-04-07T08:45:50;15.98;;;11.13;;
20527;SDS011;23612;50.894;10.700;2023-04-07T08:48:20;16.15;;;10.98;;
20527;SDS011;23612;50.894;10.700;2023-04-07T08:50:48;15.45;;;11.25;;
20527;SDS011;23612;50.894;10.700;2023-04-07T08:53:17;13.90;;;11.85;;
20527;SDS011;23612;50.894;10.700;2023-04-07T08:55:47;16.52;;;12.75;;
20527;SDS011;23612;50.894;10.700;2023-04-07T08:58:12;16.92;;;12.65;;
20527;SDS011;23612;50.894;10.700;2023-04-07T09:00:39;17.10;;;12.93;;
20527;SDS011;23612;50.894;10.700;2023-04-07T09:03:07;19.65;;;12.73;;
20527;SDS011;23612;50.894;10.700;2023-04-07T09:05:33;23.33;;;11.65;;
20527;SDS011;23612;50.894;10.700;2023-04-07T09:07:59;17.17;;;10.95;;
20527;SDS011;23612;50.894;10.700;2023-04-07T09:10:26;14.82;;;11.13;;
20527;SDS011;23612;50.894;10.700;2023-04-07T09:12:52;12.70;;;10.13;;
20527;SDS011;23612;50.894;10.700;2023-04-07T09:15:17;14.02;;;10.95;;
20527;SDS011;23612;50.894;10.700;2023-04-07T09:17:43;16.00;;;10.85;;
20527;SDS011;23612;50.894;10.700;2023-04-07T09:20:09;14.57;;;11.23;;
20527;SDS011;23612;50.894;10.700;2023-04-07T09:22:39;16.67;;;11.15;;
20527;SDS011;23612;50.894;10.700;2023-04-07T09:25:17;15.30;;;10.73;;
20527;SDS011;23612;50.894;10.700;2023-04-07T09:27:58;12.70;;;10.25;;
20527;SDS011;23612;50.894;10.700;2023-04-07T09:30:25;12.13;;;10.75;;
20527;SDS011;23612;50.894;10.700;2023-04-07T09:32:51;16.50;;;10.77;;
20527;SDS011;23612;50.894;10.700;2023-04-07T09:35:17;15.18;;;10.82;;
20527;SDS011;23612;50.894;10.700;2023-04-07T09:37:43;21.60;;;12.30;;
20527;SDS011;23612;50.894;10.700;2023-04-07T09:40:09;14.57;;;11.63;;
20527;SDS011;23612;50.894;10.700;2023-04-07T09:42:34;18.83;;;11.45;;
20527;SDS011;23612;50.894;10.700;2023-04-07T09:45:08;112.65;;;16.25;;
20527;SDS011;23612;50.894;10.700;2023-04-07T09:47:34;17.50;;;11.23;;
20527;SDS011;23612;50.894;10.700;2023-04-07T09:50:00;17.30;;;12.65;;
20527;SDS011;23612;50.894;10.700;2023-04-07T09:55:27;15.50;;;11.57;;
20527;SDS011;23612;50.894;10.700;2023-04-07T09:57:53;17.00;;;12.73;;
20527;SDS011;23612;50.894;10.700;2023-04-07T10:00:22;16.45;;;12.13;;
20527;SDS011;23612;50.894;10.700;2023-04-07T10:02:48;14.20;;;12.18;;
20527;SDS011;23612;50.894;10.700;2023-04-07T10:05:15;16.67;;;13.05;;
20527;SDS011;23612;50.894;10.700;2023-04-07T10:07:40;17.25;;;13.00;;
20527;SDS011;23612;50.894;10.700;2023-04-07T10:10:07;15.98;;;13.10;;
20527;SDS011;23612;50.894;10.700;2023-04-07T10:12:33;18.40;;;14.02;;
20527;SDS011;23612;50.894;10.700;2023-04-07T10:15:01;16.05;;;12.07;;
20527;SDS011;23612;50.894;10.700;2023-04-07T10:17:28;17.35;;;12.55;;
20527;SDS011;23612;50.894;10.700;2023-04-07T10:19:56;16.85;;;12.15;;
20527;SDS011;23612;50.894;10.700;2023-04-07T10:22:23;14.77;;;13.18;;
20527;SDS011;23612;50.894;10.700;2023-04-07T10:24:53;17.33;;;13.02;;
20527;SDS011;23612;50.894;10.700;2023-04-07T10:27:52;18.73;;;13.90;;
20527;SDS011;23612;50.894;10.700;2023-04-07T10:32:50;16.27;;;12.90;;
20527;SDS011;23612;50.894;10.700;2023-04-07T10:35:16;18.48;;;14.13;;
20527;SDS011;23612;50.894;10.700;2023-04-07T10:40:46;16.95;;;13.48;;
20527;SDS011;23612;50.894;10.700;2023-04-07T10:43:12;23.10;;;14.98;;
20527;SDS011;23612;50.894;10.700;2023-04-07T10:45:57;19.38;;;14.82;;
20527;SDS011;23612;50.894;10.700;2023-04-07T10:48:23;25.08;;;14.80;;
20527;SDS011;23612;50.894;10.700;2023-04-07T10:53:31;20.92;;;15.00;;
20527;SDS011;23612;50.894;10.700;2023-04-07T10:55:57;20.52;;;15.07;;
20527;SDS011;23612;50.894;10.700;2023-04-07T10:58:32;18.02;;;15.25;;
20527;SDS011;23612;50.894;10.700;2023-04-07T11:03:39;19.83;;;14.75;;
20527;SDS011;23612;50.894;10.700;2023-04-07T11:06:10;18.58;;;14.82;;
20527;SDS011;23612;50.894;10.700;2023-04-07T11:08:39;17.50;;;14.50;;
20527;SDS011;23612;50.894;10.700;2023-04-07T11:11:08;18.80;;;14.10;;
20527;SDS011;23612;50.894;10.700;2023-04-07T11:13:42;29.80;;;15.55;;
20527;SDS011;23612;50.894;10.700;2023-04-07T11:16:09;17.80;;;14.75;;
20527;SDS011;23612;50.894;10.700;2023-04-07T11:18:34;18.63;;;13.88;;
20527;SDS011;23612;50.894;10.700;2023-04-07T11:21:03;17.00;;;14.00;;
20527;SDS011;23612;50.894;10.700;2023-04-07T11:23:37;16.52;;;13.80;;
20527;SDS011;23612;50.894;10.700;2023-04-07T11:26:03;18.45;;;14.50;;
20527;SDS011;23612;50.894;10.700;2023-04-07T11:28:29;23.48;;;14.95;;
20527;SDS011;23612;50.894;10.700;2023-04-07T11:30:55;19.42;;;14.40;;
20527;SDS011;23612;50.894;10.700;2023-04-07T11:33:25;17.58;;;14.00;;
20527;SDS011;23612;50.894;10.700;2023-04-07T11:38:20;16.80;;;13.57;;
20527;SDS011;23612;50.894;10.700;2023-04-07T11:40:46;15.93;;;13.13;;
20527;SDS011;23612;50.894;10.700;2023-04-07T11:43:16;17.25;;;12.48;;
20527;SDS011;23612;50.894;10.700;2023-04-07T11:45:46;16.25;;;12.82;;
20527;SDS011;23612;50.894;10.700;2023-04-07T11:48:30;16.17;;;12.38;;
20527;SDS011;23612;50.894;10.700;2023-04-07T11:50:57;15.63;;;12.73;;
20527;SDS011;23612;50.894;10.700;2023-04-07T11:53:26;19.02;;;12.60;;
20527;SDS011;23612;50.894;10.700;2023-04-07T11:56:00;15.27;;;11.48;;
20527;SDS011;23612;50.894;10.700;2023-04-07T11:58:33;15.13;;;12.45;;
20527;SDS011;23612;50.894;10.700;2023-04-07T12:01:00;23.58;;;18.67;;
20527;SDS011;23612;50.894;10.700;2023-04-07T12:03:30;16.60;;;13.07;;
20527;SDS011;23612;50.894;10.700;2023-04-07T12:05:57;16.60;;;12.40;;
20527;SDS011;23612;50.894;10.700;2023-04-07T12:08:35;15.60;;;12.32;;
20527;SDS011;23612;50.894;10.700;2023-04-07T12:11:02;14.30;;;12.40;;
20527;SDS011;23612;50.894;10.700;2023-04-07T12:13:29;19.63;;;11.65;;
20527;SDS011;23612;50.894;10.700;2023-04-07T12:15:55;15.65;;;12.25;;
20527;SDS011;23612;50.894;10.700;2023-04-07T12:18:22;14.77;;;11.90;;
20527;SDS011;23612;50.894;10.700;2023-04-07T12:20:49;15.07;;;11.75;;
20527;SDS011;23612;50.894;10.700;2023-04-07T12:23:14;16.48;;;12.90;;
20527;SDS011;23612;50.894;10.700;2023-04-07T12:25:40;13.82;;;12.23;;
20527;SDS011;23612;50.894;10.700;2023-04-07T12:28:06;12.38;;;11.07;;
20527;SDS011;23612;50.894;10.700;2023-04-07T12:30:31;14.70;;;11.50;;
20527;SDS011;23612;50.894;10.700;2023-04-07T12:32:57;15.27;;;12.13;;
20527;SDS011;23612;50.894;10.700;2023-04-07T12:35:22;14.65;;;11.52;;
20527;SDS011;23612;50.894;10.700;2023-04-07T12:37:48;16.48;;;11.85;;
20527;SDS011;23612;50.894;10.700;2023-04-07T12:40:13;14.98;;;11.98;;
20527;SDS011;23612;50.894;10.700;2023-04-07T12:42:40;15.48;;;12.38;;
20527;SDS011;23612;50.894;10.700;2023-04-07T12:45:06;26.30;;;12.55;;
20527;SDS011;23612;50.894;10.700;2023-04-07T12:47:32;17.52;;;12.27;;
20527;SDS011;23612;50.894;10.700;2023-04-07T12:49:57;14.50;;;11.98;;
20527;SDS011;23612;50.894;10.700;2023-04-07T12:52:23;15.95;;;12.68;;
20527;SDS011;23612;50.894;10.700;2023-04-07T12:54:49;14.65;;;11.70;;
20527;SDS011;23612;50.894;10.700;2023-04-07T12:57:15;14.30;;;11.38;;
20527;SDS011;23612;50.894;10.700;2023-04-07T12:59:40;13.60;;;11.50;;
20527;SDS011;23612;50.894;10.700;2023-04-07T13:02:06;15.18;;;12.00;;
20527;SDS011;23612;50.894;10.700;2023-04-07T13:04:32;16.33;;;12.57;;
20527;SDS011;23612;50.894;10.700;2023-04-07T13:06:58;16.88;;;12.60;;
20527;SDS011;23612;50.894;10.700;2023-04-07T13:09:26;15.13;;;11.48;;
20527;SDS011;23612;50.894;10.700;2023-04-07T13:11:52;14.63;;;11.55;;
20527;SDS011;23612;50.894;10.700;2023-04-07T13:14:17;13.75;;;11.68;;
20527;SDS011;23612;50.894;10.700;2023-04-07T13:16:43;14.48;;;11.38;;
20527;SDS011;23612;50.894;10.700;2023-04-07T13:19:08;13.43;;;11.35;;
20527;SDS011;23612;50.894;10.700;2023-04-07T13:21:34;18.98;;;12.70;;
20527;SDS011;23612;50.894;10.700;2023-04-07T13:24:00;15.93;;;12.25;;
20527;SDS011;23612;50.894;10.700;2023-04-07T13:26:25;15.07;;;11.98;;
20527;SDS011;23612;50.894;10.700;2023-04-07T13:28:52;15.82;;;11.50;;
20527;SDS011;23612;50.894;10.700;2023-04-07T13:31:17;17.85;;;12.40;;
20527;SDS011;23612;50.894;10.700;2023-04-07T13:33:45;13.45;;;11.05;;
20527;SDS011;23612;50.894;10.700;2023-04-07T13:36:11;16.83;;;12.52;;
20527;SDS011;23612;50.894;10.700;2023-04-07T13:38:36;20.60;;;14.35;;
20527;SDS011;23612;50.894;10.700;2023-04-07T13:41:02;18.05;;;12.68;;
20527;SDS011;23612;50.894;10.700;2023-04-07T13:43:28;28.05;;;12.25;;
20527;SDS011;23612;50.894;10.700;2023-04-07T13:45:53;28.33;;;14.05;;
20527;SDS011;23612;50.894;10.700;2023-04-07T13:48:20;16.67;;;12.50;;
20527;SDS011;23612;50.894;10.700;2023-04-07T13:50:46;43.40;;;17.42;;
20527;SDS011;23612;50.894;10.700;2023-04-07T13:53:11;16.85;;;12.60;;
20527;SDS011;23612;50.894;10.700;2023-04-07T13:55:37;17.38;;;13.07;;
20527;SDS011;23612;50.894;10.700;2023-04-07T13:58:03;15.60;;;12.70;;
20527;SDS011;23612;50.894;10.700;2023-04-07T14:00:28;19.15;;;13.13;;
20527;SDS011;23612;50.894;10.700;2023-04-07T14:02:54;14.82;;;11.65;;
20527;SDS011;23612;50.894;10.700;2023-04-07T14:05:20;17.10;;;12.48;;
20527;SDS011;23612;50.894;10.700;2023-04-07T14:07:45;16.88;;;12.32;;
20527;SDS011;23612;50.894;10.700;2023-04-07T14:10:11;57.13;;;40.30;;
20527;SDS011;23612;50.894;10.700;2023-04-07T14:12:36;19.40;;;14.13;;
20527;SDS011;23612;50.894;10.700;2023-04-07T14:15:02;18.30;;;13.77;;
20527;SDS011;23612;50.894;10.700;2023-04-07T14:17:28;20.35;;;15.48;;
20527;SDS011;23612;50.894;10.700;2023-04-07T14:19:53;16.77;;;12.57;;
20527;SDS011;23612;50.894;10.700;2023-04-07T14:22:19;20.40;;;12.85;;
20527;SDS011;23612;50.894;10.700;2023-04-07T14:24:44;28.10;;;18.20;;
20527;SDS011;23612;50.894;10.700;2023-04-07T14:27:10;18.70;;;13.65;;